Cala Mondrago — FAC5586 — position and weather

sailwx.info

Track history (hours):
 
Tides and Currents Weather Stations Pressure Air Temp Water Temp Dewpoint Dewpoint Depression Visibility Wind Speed Wind Dir Waves Ship Positions

Cala Mondrago

Last reported at 2017-Aug-25 19:27 UTC. Time now 2017-Nov-19 12:27 UTC.
Position N 47°35' W 003°02'.
Warning: this ship's position is months out of date.

Type: Sailing vessel. MMSI: 227299560.

Date/timePositionNaut miles runAvg speedWind from/ knotsBaromVisibWave heightAir tempDewpointWater temp
2017-Aug-25 19:27N 47°35' W 003°02'0 0.6
2017-Aug-25 19:00N 47°35' W 003°01'2 4.9
2017-Aug-25 18:30N 47°33' W 003°01'3 6.9
2017-Aug-25 18:00N 47°29' W 002°60'4 7.7
2017-Aug-25 17:30N 47°26' W 002°60'3 6.7
2017-Aug-25 17:00N 47°22' W 003°02'4 7.2
2017-Aug-25 16:30N 47°19' W 003°03'1 0.0
2017-Aug-24 17:04N 47°18' W 003°04'0 2.0
2017-Aug-24 17:00N 47°18' W 003°04'0 0.2
2017-Aug-24 16:09N 47°18' W 003°04'0 0.0
2017-Aug-24 15:43N 47°18' W 003°04'0 0.1
2017-Aug-24 14:14N 47°18' W 003°04'0 0.7
2017-Aug-24 13:59N 47°18' W 003°03'2 4.6
2017-Aug-24 13:30N 47°20' W 003°02'3 5.5
2017-Aug-24 13:00N 47°23' W 003°01'3 5.3
2017-Aug-24 12:30N 47°25' W 002°60'3 5.7
2017-Aug-24 12:00N 47°28' W 002°60'2 4.2
2017-Aug-24 11:30N 47°30' W 002°60'2 4.2
2017-Aug-24 11:00N 47°32' W 002°60'2 3.7
2017-Aug-24 10:30N 47°34' W 003°01'1 2.8
2017-Aug-24 10:00N 47°35' W 003°02'0 0.0
2017-Aug-23 17:30N 47°35' W 003°01'0 0.0
2017-Aug-23 17:00N 47°35' W 003°01'0 0.0
2017-Aug-23 16:30N 47°35' W 003°01'0 0.0
2017-Aug-23 14:02N 47°35' W 003°01'1 1.9
2017-Aug-23 13:30N 47°35' W 003°01'3 6.9
2017-Aug-23 13:00N 47°31' W 002°59'2 3.2
2017-Aug-23 12:30N 47°31' W 002°57'2 3.1
2017-Aug-23 12:00N 47°32' W 002°55'4 7.1
2017-Aug-23 11:30N 47°35' W 002°52'2 3.4
2017-Aug-23 11:00N 47°36' W 002°51'0 0.0
2017-Aug-21 16:41N 47°36' W 002°51'0 0.0
2017-Aug-21 16:28N 47°36' W 002°51'3 5.9
2017-Aug-21 16:00N 47°34' W 002°54'4 7.5
2017-Aug-21 15:30N 47°31' W 002°56'0 1.0
2017-Aug-21 15:00N 47°31' W 002°56'3 5.7
2017-Aug-21 14:30N 47°33' W 002°60'2 4.7
2017-Aug-21 14:00N 47°35' W 003°01'7 0.1
2017-Aug-19 15:10N 47°36' W 002°51'0 0.0
2017-Aug-19 14:58N 47°36' W 002°51'0 0.0
2017-Aug-19 13:58N 47°36' W 002°51'1 1.9
2017-Aug-19 13:30N 47°36' W 002°52'4 8.6
2017-Aug-19 13:00N 47°32' W 002°55'2 4.4
2017-Aug-19 12:30N 47°32' W 002°59'4 7.4
2017-Aug-19 12:00N 47°35' W 003°01'  
2017-Aug-16 12:30N 47°35' W 003°01'0 0.0
2017-Aug-16 12:00N 47°35' W 003°01'1 2.3
2017-Aug-16 11:30N 47°34' W 003°01'3 6.1
2017-Aug-16 11:00N 47°32' W 002°59'3 6.0
2017-Aug-16 10:30N 47°29' W 002°57'3 5.9
2017-Aug-16 10:00N 47°26' W 002°55'3 5.7
2017-Aug-16 09:30N 47°24' W 002°53'3 5.3
2017-Aug-16 08:57N 47°21' W 002°51'  
Track history (hours):
 
Tides and Currents Weather Stations Pressure Air Temp Water Temp Dewpoint Dewpoint Depression Visibility Wind Speed Wind Dir Waves Ship Positions

Cala Mondrago

Last reported at 2017-Aug-25 19:27 UTC. Time now 2017-Nov-19 12:27 UTC.
Position N 47°35' W 003°02'.
Warning: this ship's position is months out of date.

Type: Sailing vessel. MMSI: 227299560.

Date/timePositionNaut miles runAvg speedWind from/ knotsBaromVisibWave heightAir tempDewpointWater temp
2017-Aug-25 19:27N 47°35' W 003°02'0 0.6
2017-Aug-25 19:00N 47°35' W 003°01'2 4.9
2017-Aug-25 18:30N 47°33' W 003°01'3 6.9
2017-Aug-25 18:00N 47°29' W 002°60'4 7.7
2017-Aug-25 17:30N 47°26' W 002°60'3 6.7
2017-Aug-25 17:00N 47°22' W 003°02'4 7.2
2017-Aug-25 16:30N 47°19' W 003°03'1 0.0
2017-Aug-24 17:04N 47°18' W 003°04'0 2.0
2017-Aug-24 17:00N 47°18' W 003°04'0 0.2
2017-Aug-24 16:09N 47°18' W 003°04'0 0.0
2017-Aug-24 15:43N 47°18' W 003°04'0 0.1
2017-Aug-24 14:14N 47°18' W 003°04'0 0.7
2017-Aug-24 13:59N 47°18' W 003°03'2 4.6
2017-Aug-24 13:30N 47°20' W 003°02'3 5.5
2017-Aug-24 13:00N 47°23' W 003°01'3 5.3
2017-Aug-24 12:30N 47°25' W 002°60'3 5.7
2017-Aug-24 12:00N 47°28' W 002°60'2 4.2
2017-Aug-24 11:30N 47°30' W 002°60'2 4.2
2017-Aug-24 11:00N 47°32' W 002°60'2 3.7
2017-Aug-24 10:30N 47°34' W 003°01'1 2.8
2017-Aug-24 10:00N 47°35' W 003°02'0 0.0
2017-Aug-23 17:30N 47°35' W 003°01'0 0.0
2017-Aug-23 17:00N 47°35' W 003°01'0 0.0
2017-Aug-23 16:30N 47°35' W 003°01'0 0.0
2017-Aug-23 14:02N 47°35' W 003°01'1 1.9
2017-Aug-23 13:30N 47°35' W 003°01'3 6.9
2017-Aug-23 13:00N 47°31' W 002°59'2 3.2
2017-Aug-23 12:30N 47°31' W 002°57'2 3.1
2017-Aug-23 12:00N 47°32' W 002°55'4 7.1
2017-Aug-23 11:30N 47°35' W 002°52'2 3.4
2017-Aug-23 11:00N 47°36' W 002°51'0 0.0
2017-Aug-21 16:41N 47°36' W 002°51'0 0.0
2017-Aug-21 16:28N 47°36' W 002°51'3 5.9
2017-Aug-21 16:00N 47°34' W 002°54'4 7.5
2017-Aug-21 15:30N 47°31' W 002°56'0 1.0
2017-Aug-21 15:00N 47°31' W 002°56'3 5.7
2017-Aug-21 14:30N 47°33' W 002°60'2 4.7
2017-Aug-21 14:00N 47°35' W 003°01'7 0.1
2017-Aug-19 15:10N 47°36' W 002°51'0 0.0
2017-Aug-19 14:58N 47°36' W 002°51'0 0.0
2017-Aug-19 13:58N 47°36' W 002°51'1 1.9
2017-Aug-19 13:30N 47°36' W 002°52'4 8.6
2017-Aug-19 13:00N 47°32' W 002°55'2 4.4
2017-Aug-19 12:30N 47°32' W 002°59'4 7.4
2017-Aug-19 12:00N 47°35' W 003°01'  
2017-Aug-16 12:30N 47°35' W 003°01'0 0.0
2017-Aug-16 12:00N 47°35' W 003°01'1 2.3
2017-Aug-16 11:30N 47°34' W 003°01'3 6.1
2017-Aug-16 11:00N 47°32' W 002°59'3 6.0
2017-Aug-16 10:30N 47°29' W 002°57'3 5.9
2017-Aug-16 10:00N 47°26' W 002°55'3 5.7
2017-Aug-16 09:30N 47°24' W 002°53'3 5.3
2017-Aug-16 08:57N 47°21' W 002°51'  

Dump ship's entire track history